sensor_id;sensor_type;location;lat;lon;timestamp;P1;durP1;ratioP1;P2;durP2;ratioP2
14599;SDS011;7386;45.586;12.854;2024-02-15T00:01:52;74.40;;;47.20;;
14599;SDS011;7386;45.586;12.854;2024-02-15T00:04:20;76.80;;;47.63;;
14599;SDS011;7386;45.586;12.854;2024-02-15T00:06:49;82.37;;;48.40;;
14599;SDS011;7386;45.586;12.854;2024-02-15T00:09:17;76.83;;;48.67;;
14599;SDS011;7386;45.586;12.854;2024-02-15T00:11:46;80.33;;;49.03;;
14599;SDS011;7386;45.586;12.854;2024-02-15T00:14:16;81.43;;;48.43;;
14599;SDS011;7386;45.586;12.854;2024-02-15T00:16:45;74.63;;;47.80;;
14599;SDS011;7386;45.586;12.854;2024-02-15T00:19:13;75.50;;;47.93;;
14599;SDS011;7386;45.586;12.854;2024-02-15T00:21:44;79.97;;;48.13;;
14599;SDS011;7386;45.586;12.854;2024-02-15T00:24:12;72.53;;;47.10;;
14599;SDS011;7386;45.586;12.854;2024-02-15T00:26:41;72.27;;;46.30;;
14599;SDS011;7386;45.586;12.854;2024-02-15T00:29:09;79.40;;;47.53;;
14599;SDS011;7386;45.586;12.854;2024-02-15T00:31:40;78.13;;;48.33;;
14599;SDS011;7386;45.586;12.854;2024-02-15T00:34:09;75.33;;;47.60;;
14599;SDS011;7386;45.586;12.854;2024-02-15T00:36:41;75.73;;;49.07;;
14599;SDS011;7386;45.586;12.854;2024-02-15T00:39:09;81.63;;;49.83;;
14599;SDS011;7386;45.586;12.854;2024-02-15T00:41:39;78.83;;;48.70;;
14599;SDS011;7386;45.586;12.854;2024-02-15T00:44:09;77.07;;;46.93;;
14599;SDS011;7386;45.586;12.854;2024-02-15T00:46:37;85.13;;;49.47;;
14599;SDS011;7386;45.586;12.854;2024-02-15T00:49:09;85.33;;;53.33;;
14599;SDS011;7386;45.586;12.854;2024-02-15T00:51:38;81.00;;;49.50;;
14599;SDS011;7386;45.586;12.854;2024-02-15T00:54:06;83.60;;;49.77;;
14599;SDS011;7386;45.586;12.854;2024-02-15T00:56:35;84.67;;;50.77;;
14599;SDS011;7386;45.586;12.854;2024-02-15T00:59:04;86.10;;;52.57;;
14599;SDS011;7386;45.586;12.854;2024-02-15T01:01:33;83.70;;;52.00;;
14599;SDS011;7386;45.586;12.854;2024-02-15T01:04:04;85.63;;;52.07;;
14599;SDS011;7386;45.586;12.854;2024-02-15T01:06:34;85.07;;;52.23;;
14599;SDS011;7386;45.586;12.854;2024-02-15T01:09:02;86.97;;;52.27;;
14599;SDS011;7386;45.586;12.854;2024-02-15T01:11:31;86.90;;;52.67;;
14599;SDS011;7386;45.586;12.854;2024-02-15T01:13:59;91.13;;;54.60;;
14599;SDS011;7386;45.586;12.854;2024-02-15T01:16:28;86.77;;;53.73;;
14599;SDS011;7386;45.586;12.854;2024-02-15T01:18:56;93.67;;;55.53;;
14599;SDS011;7386;45.586;12.854;2024-02-15T01:21:25;93.53;;;55.67;;
14599;SDS011;7386;45.586;12.854;2024-02-15T01:23:55;89.97;;;56.60;;
14599;SDS011;7386;45.586;12.854;2024-02-15T01:26:23;89.47;;;56.93;;
14599;SDS011;7386;45.586;12.854;2024-02-15T01:28:52;89.13;;;55.80;;
14599;SDS011;7386;45.586;12.854;2024-02-15T01:31:20;91.37;;;54.70;;
14599;SDS011;7386;45.586;12.854;2024-02-15T01:33:49;91.57;;;54.93;;
14599;SDS011;7386;45.586;12.854;2024-02-15T01:36:17;86.83;;;56.00;;
14599;SDS011;7386;45.586;12.854;2024-02-15T01:38:46;94.33;;;56.93;;
14599;SDS011;7386;45.586;12.854;2024-02-15T01:41:16;92.33;;;55.73;;
14599;SDS011;7386;45.586;12.854;2024-02-15T01:43:44;85.73;;;54.23;;
14599;SDS011;7386;45.586;12.854;2024-02-15T01:46:14;92.00;;;55.90;;
14599;SDS011;7386;45.586;12.854;2024-02-15T01:48:43;92.77;;;56.47;;
14599;SDS011;7386;45.586;12.854;2024-02-15T01:51:12;91.33;;;55.83;;
14599;SDS011;7386;45.586;12.854;2024-02-15T01:53:41;91.90;;;55.77;;
14599;SDS011;7386;45.586;12.854;2024-02-15T01:56:12;89.40;;;54.77;;
14599;SDS011;7386;45.586;12.854;2024-02-15T01:58:43;87.27;;;54.47;;
14599;SDS011;7386;45.586;12.854;2024-02-15T02:01:13;83.83;;;53.00;;
14599;SDS011;7386;45.586;12.854;2024-02-15T02:03:43;93.03;;;54.57;;
14599;SDS011;7386;45.586;12.854;2024-02-15T02:06:12;90.37;;;53.17;;
14599;SDS011;7386;45.586;12.854;2024-02-15T02:08:40;90.40;;;54.10;;
14599;SDS011;7386;45.586;12.854;2024-02-15T02:11:09;86.87;;;52.53;;
14599;SDS011;7386;45.586;12.854;2024-02-15T02:13:37;85.10;;;52.47;;
14599;SDS011;7386;45.586;12.854;2024-02-15T02:18:50;83.43;;;49.30;;
14599;SDS011;7386;45.586;12.854;2024-02-15T02:21:19;87.93;;;52.23;;
14599;SDS011;7386;45.586;12.854;2024-02-15T02:23:48;86.37;;;51.87;;
14599;SDS011;7386;45.586;12.854;2024-02-15T02:26:21;82.03;;;49.20;;
14599;SDS011;7386;45.586;12.854;2024-02-15T02:28:50;80.33;;;49.30;;
14599;SDS011;7386;45.586;12.854;2024-02-15T02:31:19;78.73;;;48.70;;
14599;SDS011;7386;45.586;12.854;2024-02-15T02:33:49;81.97;;;48.00;;
14599;SDS011;7386;45.586;12.854;2024-02-15T02:36:19;81.07;;;47.47;;
14599;SDS011;7386;45.586;12.854;2024-02-15T02:38:48;78.27;;;47.47;;
14599;SDS011;7386;45.586;12.854;2024-02-15T02:41:17;81.77;;;48.43;;
14599;SDS011;7386;45.586;12.854;2024-02-15T02:43:47;79.63;;;46.23;;
14599;SDS011;7386;45.586;12.854;2024-02-15T02:46:15;76.47;;;46.63;;
14599;SDS011;7386;45.586;12.854;2024-02-15T02:48:44;73.63;;;45.10;;
14599;SDS011;7386;45.586;12.854;2024-02-15T02:51:12;73.37;;;46.67;;
14599;SDS011;7386;45.586;12.854;2024-02-15T02:53:41;76.13;;;46.13;;
14599;SDS011;7386;45.586;12.854;2024-02-15T02:56:10;72.17;;;44.27;;
14599;SDS011;7386;45.586;12.854;2024-02-15T02:58:39;75.43;;;47.07;;
14599;SDS011;7386;45.586;12.854;2024-02-15T03:01:10;77.27;;;46.13;;
14599;SDS011;7386;45.586;12.854;2024-02-15T03:03:39;72.97;;;44.27;;
14599;SDS011;7386;45.586;12.854;2024-02-15T03:06:09;73.70;;;44.83;;
14599;SDS011;7386;45.586;12.854;2024-02-15T03:08:37;73.97;;;45.57;;
14599;SDS011;7386;45.586;12.854;2024-02-15T03:11:06;73.17;;;44.63;;
14599;SDS011;7386;45.586;12.854;2024-02-15T03:13:34;70.57;;;45.27;;
14599;SDS011;7386;45.586;12.854;2024-02-15T03:16:03;65.93;;;42.93;;
14599;SDS011;7386;45.586;12.854;2024-02-15T03:18:34;70.40;;;44.17;;
14599;SDS011;7386;45.586;12.854;2024-02-15T03:21:02;71.03;;;43.73;;
14599;SDS011;7386;45.586;12.854;2024-02-15T03:23:31;66.30;;;43.27;;
14599;SDS011;7386;45.586;12.854;2024-02-15T03:26:01;72.40;;;45.97;;
14599;SDS011;7386;45.586;12.854;2024-02-15T03:28:30;75.97;;;47.00;;
14599;SDS011;7386;45.586;12.854;2024-02-15T03:30:58;73.53;;;45.47;;
14599;SDS011;7386;45.586;12.854;2024-02-15T03:33:27;71.90;;;45.00;;
14599;SDS011;7386;45.586;12.854;2024-02-15T03:36:01;74.50;;;46.57;;
14599;SDS011;7386;45.586;12.854;2024-02-15T03:38:31;73.60;;;46.93;;
14599;SDS011;7386;45.586;12.854;2024-02-15T03:40:59;68.93;;;44.43;;
14599;SDS011;7386;45.586;12.854;2024-02-15T03:43:28;70.83;;;45.80;;
14599;SDS011;7386;45.586;12.854;2024-02-15T03:45:57;72.17;;;46.23;;
14599;SDS011;7386;45.586;12.854;2024-02-15T03:48:25;74.43;;;48.30;;
14599;SDS011;7386;45.586;12.854;2024-02-15T03:50:53;71.93;;;47.07;;
14599;SDS011;7386;45.586;12.854;2024-02-15T03:53:25;76.87;;;49.10;;
14599;SDS011;7386;45.586;12.854;2024-02-15T03:55:56;77.30;;;48.57;;
14599;SDS011;7386;45.586;12.854;2024-02-15T03:58:24;77.53;;;49.03;;
14599;SDS011;7386;45.586;12.854;2024-02-15T04:00:53;78.83;;;48.87;;
14599;SDS011;7386;45.586;12.854;2024-02-15T04:03:23;75.80;;;47.67;;
14599;SDS011;7386;45.586;12.854;2024-02-15T04:05:51;77.37;;;48.17;;
14599;SDS011;7386;45.586;12.854;2024-02-15T04:08:21;74.27;;;48.00;;
14599;SDS011;7386;45.586;12.854;2024-02-15T04:10:52;78.93;;;48.37;;
14599;SDS011;7386;45.586;12.854;2024-02-15T04:13:21;76.60;;;48.00;;
14599;SDS011;7386;45.586;12.854;2024-02-15T04:15:49;73.53;;;47.77;;
14599;SDS011;7386;45.586;12.854;2024-02-15T04:18:19;77.40;;;47.63;;
14599;SDS011;7386;45.586;12.854;2024-02-15T04:20:48;75.60;;;45.93;;
14599;SDS011;7386;45.586;12.854;2024-02-15T04:23:17;75.60;;;47.27;;
14599;SDS011;7386;45.586;12.854;2024-02-15T04:25:47;71.37;;;46.10;;
14599;SDS011;7386;45.586;12.854;2024-02-15T04:28:19;73.63;;;46.47;;
14599;SDS011;7386;45.586;12.854;2024-02-15T04:30:48;72.90;;;46.10;;
14599;SDS011;7386;45.586;12.854;2024-02-15T04:33:16;70.87;;;45.90;;
14599;SDS011;7386;45.586;12.854;2024-02-15T04:35:45;69.17;;;45.30;;
14599;SDS011;7386;45.586;12.854;2024-02-15T04:38:15;72.47;;;45.90;;
14599;SDS011;7386;45.586;12.854;2024-02-15T04:40:45;69.30;;;44.00;;
14599;SDS011;7386;45.586;12.854;2024-02-15T04:43:14;70.80;;;45.57;;
14599;SDS011;7386;45.586;12.854;2024-02-15T04:45:44;68.80;;;44.67;;
14599;SDS011;7386;45.586;12.854;2024-02-15T04:48:13;73.10;;;45.47;;
14599;SDS011;7386;45.586;12.854;2024-02-15T04:50:41;70.17;;;45.73;;
14599;SDS011;7386;45.586;12.854;2024-02-15T04:53:10;71.57;;;44.60;;
14599;SDS011;7386;45.586;12.854;2024-02-15T04:55:39;72.50;;;44.77;;
14599;SDS011;7386;45.586;12.854;2024-02-15T04:58:07;68.87;;;44.57;;
14599;SDS011;7386;45.586;12.854;2024-02-15T05:00:37;69.57;;;43.70;;
14599;SDS011;7386;45.586;12.854;2024-02-15T05:03:06;71.73;;;45.57;;
14599;SDS011;7386;45.586;12.854;2024-02-15T05:05:35;69.97;;;43.10;;
14599;SDS011;7386;45.586;12.854;2024-02-15T05:08:05;66.80;;;42.60;;
14599;SDS011;7386;45.586;12.854;2024-02-15T05:10:35;65.03;;;43.77;;
14599;SDS011;7386;45.586;12.854;2024-02-15T05:13:05;69.67;;;41.97;;
14599;SDS011;7386;45.586;12.854;2024-02-15T05:15:34;67.03;;;41.83;;
14599;SDS011;7386;45.586;12.854;2024-02-15T05:18:02;68.50;;;41.87;;
14599;SDS011;7386;45.586;12.854;2024-02-15T05:20:36;64.60;;;41.70;;
14599;SDS011;7386;45.586;12.854;2024-02-15T05:23:05;63.97;;;40.43;;
14599;SDS011;7386;45.586;12.854;2024-02-15T05:25:33;63.20;;;40.07;;
14599;SDS011;7386;45.586;12.854;2024-02-15T05:28:02;65.70;;;41.03;;
14599;SDS011;7386;45.586;12.854;2024-02-15T05:30:32;65.97;;;42.07;;
14599;SDS011;7386;45.586;12.854;2024-02-15T05:33:01;64.37;;;40.50;;
14599;SDS011;7386;45.586;12.854;2024-02-15T05:35:30;64.87;;;41.30;;
14599;SDS011;7386;45.586;12.854;2024-02-15T05:38:00;63.47;;;41.10;;
14599;SDS011;7386;45.586;12.854;2024-02-15T05:40:30;66.97;;;42.17;;
14599;SDS011;7386;45.586;12.854;2024-02-15T05:42:59;64.20;;;40.37;;
14599;SDS011;7386;45.586;12.854;2024-02-15T05:45:29;61.20;;;41.10;;
14599;SDS011;7386;45.586;12.854;2024-02-15T05:47:59;63.73;;;41.23;;
14599;SDS011;7386;45.586;12.854;2024-02-15T05:50:28;65.07;;;42.17;;
14599;SDS011;7386;45.586;12.854;2024-02-15T05:52:58;67.20;;;42.50;;
14599;SDS011;7386;45.586;12.854;2024-02-15T05:55:29;65.50;;;41.43;;
14599;SDS011;7386;45.586;12.854;2024-02-15T05:58:01;62.93;;;40.77;;
14599;SDS011;7386;45.586;12.854;2024-02-15T06:00:30;67.77;;;43.47;;
14599;SDS011;7386;45.586;12.854;2024-02-15T06:03:01;67.87;;;43.93;;
14599;SDS011;7386;45.586;12.854;2024-02-15T06:05:30;71.60;;;43.80;;
14599;SDS011;7386;45.586;12.854;2024-02-15T06:07:59;70.07;;;44.10;;
14599;SDS011;7386;45.586;12.854;2024-02-15T06:10:29;68.37;;;42.97;;
14599;SDS011;7386;45.586;12.854;2024-02-15T06:12:58;69.77;;;44.00;;
14599;SDS011;7386;45.586;12.854;2024-02-15T06:15:27;73.67;;;46.13;;
14599;SDS011;7386;45.586;12.854;2024-02-15T06:17:55;75.13;;;46.83;;
14599;SDS011;7386;45.586;12.854;2024-02-15T06:20:24;74.83;;;45.93;;
14599;SDS011;7386;45.586;12.854;2024-02-15T06:22:55;77.50;;;45.47;;
14599;SDS011;7386;45.586;12.854;2024-02-15T06:25:24;75.73;;;46.17;;
14599;SDS011;7386;45.586;12.854;2024-02-15T06:27:54;77.27;;;45.90;;
14599;SDS011;7386;45.586;12.854;2024-02-15T06:30:28;73.97;;;46.60;;
14599;SDS011;7386;45.586;12.854;2024-02-15T06:33:14;76.30;;;46.77;;
14599;SDS011;7386;45.586;12.854;2024-02-15T06:36:03;73.90;;;44.87;;
14599;SDS011;7386;45.586;12.854;2024-02-15T06:38:49;78.97;;;46.07;;
14599;SDS011;7386;45.586;12.854;2024-02-15T06:41:35;73.73;;;46.20;;
14599;SDS011;7386;45.586;12.854;2024-02-15T06:44:05;73.37;;;46.77;;
14599;SDS011;7386;45.586;12.854;2024-02-15T06:46:34;77.80;;;46.10;;
14599;SDS011;7386;45.586;12.854;2024-02-15T06:49:02;83.27;;;48.63;;
14599;SDS011;7386;45.586;12.854;2024-02-15T06:51:31;75.73;;;46.53;;
14599;SDS011;7386;45.586;12.854;2024-02-15T06:54:00;75.80;;;47.33;;
14599;SDS011;7386;45.586;12.854;2024-02-15T06:56:30;77.67;;;47.03;;
14599;SDS011;7386;45.586;12.854;2024-02-15T06:58:58;78.20;;;47.20;;
14599;SDS011;7386;45.586;12.854;2024-02-15T07:01:29;79.30;;;47.90;;
14599;SDS011;7386;45.586;12.854;2024-02-15T07:03:58;75.90;;;47.50;;
14599;SDS011;7386;45.586;12.854;2024-02-15T07:06:29;77.17;;;46.17;;
14599;SDS011;7386;45.586;12.854;2024-02-15T07:08:58;75.73;;;46.43;;
14599;SDS011;7386;45.586;12.854;2024-02-15T07:11:27;72.40;;;45.87;;
14599;SDS011;7386;45.586;12.854;2024-02-15T07:13:56;72.50;;;44.90;;
14599;SDS011;7386;45.586;12.854;2024-02-15T07:16:25;73.43;;;45.23;;
14599;SDS011;7386;45.586;12.854;2024-02-15T07:18:55;71.83;;;45.33;;
14599;SDS011;7386;45.586;12.854;2024-02-15T07:21:23;79.40;;;47.33;;
14599;SDS011;7386;45.586;12.854;2024-02-15T07:23:53;73.77;;;45.50;;
14599;SDS011;7386;45.586;12.854;2024-02-15T07:26:23;73.77;;;45.00;;
14599;SDS011;7386;45.586;12.854;2024-02-15T07:28:52;74.60;;;45.33;;
14599;SDS011;7386;45.586;12.854;2024-02-15T07:31:21;72.67;;;42.97;;
14599;SDS011;7386;45.586;12.854;2024-02-15T07:33:50;67.63;;;42.07;;
14599;SDS011;7386;45.586;12.854;2024-02-15T07:36:21;68.60;;;43.13;;
14599;SDS011;7386;45.586;12.854;2024-02-15T07:38:50;69.13;;;43.40;;
14599;SDS011;7386;45.586;12.854;2024-02-15T07:41:19;70.20;;;42.00;;
14599;SDS011;7386;45.586;12.854;2024-02-15T07:43:49;62.37;;;40.03;;
14599;SDS011;7386;45.586;12.854;2024-02-15T07:46:19;64.27;;;41.00;;
14599;SDS011;7386;45.586;12.854;2024-02-15T07:48:48;66.20;;;42.00;;
14599;SDS011;7386;45.586;12.854;2024-02-15T07:51:17;63.70;;;40.90;;
14599;SDS011;7386;45.586;12.854;2024-02-15T07:53:48;58.53;;;38.53;;
14599;SDS011;7386;45.586;12.854;2024-02-15T07:56:17;64.97;;;40.60;;
14599;SDS011;7386;45.586;12.854;2024-02-15T07:58:46;62.60;;;39.67;;
14599;SDS011;7386;45.586;12.854;2024-02-15T08:01:19;61.70;;;39.67;;
14599;SDS011;7386;45.586;12.854;2024-02-15T08:03:50;47.60;;;30.53;;
14599;SDS011;7386;45.586;12.854;2024-02-15T08:06:21;48.70;;;30.90;;
14599;SDS011;7386;45.586;12.854;2024-02-15T08:08:53;52.30;;;34.07;;
14599;SDS011;7386;45.586;12.854;2024-02-15T08:11:22;56.03;;;35.67;;
14599;SDS011;7386;45.586;12.854;2024-02-15T08:13:53;57.83;;;37.63;;
14599;SDS011;7386;45.586;12.854;2024-02-15T08:16:25;43.03;;;27.37;;
14599;SDS011;7386;45.586;12.854;2024-02-15T08:18:54;46.70;;;31.70;;
14599;SDS011;7386;45.586;12.854;2024-02-15T08:21:27;47.80;;;31.13;;
14599;SDS011;7386;45.586;12.854;2024-02-15T08:24:00;54.47;;;35.97;;
14599;SDS011;7386;45.586;12.854;2024-02-15T08:26:32;52.00;;;34.20;;
14599;SDS011;7386;45.586;12.854;2024-02-15T08:29:01;38.20;;;24.77;;
14599;SDS011;7386;45.586;12.854;2024-02-15T08:31:30;45.30;;;30.90;;
14599;SDS011;7386;45.586;12.854;2024-02-15T08:33:58;54.50;;;33.93;;
14599;SDS011;7386;45.586;12.854;2024-02-15T08:36:29;60.00;;;35.03;;
14599;SDS011;7386;45.586;12.854;2024-02-15T08:38:58;56.57;;;32.77;;
14599;SDS011;7386;45.586;12.854;2024-02-15T08:41:28;45.77;;;28.37;;
14599;SDS011;7386;45.586;12.854;2024-02-15T08:43:56;50.23;;;32.33;;
14599;SDS011;7386;45.586;12.854;2024-02-15T08:46:26;54.47;;;34.47;;
14599;SDS011;7386;45.586;12.854;2024-02-15T08:48:55;57.80;;;36.37;;
14599;SDS011;7386;45.586;12.854;2024-02-15T08:51:23;64.60;;;38.67;;
14599;SDS011;7386;45.586;12.854;2024-02-15T08:53:52;65.97;;;40.03;;
14599;SDS011;7386;45.586;12.854;2024-02-15T08:56:24;69.63;;;40.50;;
14599;SDS011;7386;45.586;12.854;2024-02-15T08:58:54;73.77;;;41.47;;
14599;SDS011;7386;45.586;12.854;2024-02-15T09:01:27;67.03;;;39.60;;
14599;SDS011;7386;45.586;12.854;2024-02-15T09:03:56;68.90;;;41.47;;
14599;SDS011;7386;45.586;12.854;2024-02-15T09:06:25;46.03;;;27.20;;
14599;SDS011;7386;45.586;12.854;2024-02-15T09:08:54;49.80;;;32.50;;
14599;SDS011;7386;45.586;12.854;2024-02-15T09:11:27;53.30;;;34.37;;
14599;SDS011;7386;45.586;12.854;2024-02-15T09:13:57;58.37;;;36.87;;
14599;SDS011;7386;45.586;12.854;2024-02-15T09:16:26;54.17;;;36.17;;
14599;SDS011;7386;45.586;12.854;2024-02-15T09:18:54;64.60;;;38.73;;
14599;SDS011;7386;45.586;12.854;2024-02-15T09:21:23;48.30;;;29.07;;
14599;SDS011;7386;45.586;12.854;2024-02-15T09:23:52;42.90;;;27.73;;
14599;SDS011;7386;45.586;12.854;2024-02-15T09:26:21;49.70;;;32.27;;
14599;SDS011;7386;45.586;12.854;2024-02-15T09:28:49;58.03;;;36.57;;
14599;SDS011;7386;45.586;12.854;2024-02-15T09:31:21;65.70;;;38.90;;
14599;SDS011;7386;45.586;12.854;2024-02-15T09:33:51;62.30;;;38.70;;
14599;SDS011;7386;45.586;12.854;2024-02-15T09:36:19;70.23;;;41.00;;
14599;SDS011;7386;45.586;12.854;2024-02-15T09:38:48;45.43;;;26.50;;
14599;SDS011;7386;45.586;12.854;2024-02-15T09:41:16;50.03;;;30.97;;
14599;SDS011;7386;45.586;12.854;2024-02-15T09:43:45;61.83;;;37.23;;
14599;SDS011;7386;45.586;12.854;2024-02-15T09:46:14;63.40;;;37.90;;
14599;SDS011;7386;45.586;12.854;2024-02-15T09:48:45;72.03;;;41.23;;
14599;SDS011;7386;45.586;12.854;2024-02-15T09:51:16;71.23;;;41.50;;
14599;SDS011;7386;45.586;12.854;2024-02-15T09:53:46;42.27;;;25.97;;
14599;SDS011;7386;45.586;12.854;2024-02-15T09:56:16;56.13;;;32.47;;
14599;SDS011;7386;45.586;12.854;2024-02-15T09:58:45;58.87;;;36.13;;
14599;SDS011;7386;45.586;12.854;2024-02-15T10:01:14;69.37;;;40.23;;
14599;SDS011;7386;45.586;12.854;2024-02-15T10:03:44;72.10;;;42.97;;
14599;SDS011;7386;45.586;12.854;2024-02-15T10:06:14;56.77;;;32.53;;
14599;SDS011;7386;45.586;12.854;2024-02-15T10:08:44;35.03;;;21.23;;
14599;SDS011;7386;45.586;12.854;2024-02-15T10:11:13;52.40;;;30.73;;
14599;SDS011;7386;45.586;12.854;2024-02-15T10:13:42;70.50;;;38.87;;
14599;SDS011;7386;45.586;12.854;2024-02-15T10:16:16;73.20;;;42.27;;
14599;SDS011;7386;45.586;12.854;2024-02-15T10:18:46;77.30;;;44.53;;
14599;SDS011;7386;45.586;12.854;2024-02-15T10:21:24;42.80;;;26.40;;
14599;SDS011;7386;45.586;12.854;2024-02-15T10:24:04;62.07;;;35.00;;
14599;SDS011;7386;45.586;12.854;2024-02-15T10:26:32;68.43;;;41.30;;
14599;SDS011;7386;45.586;12.854;2024-02-15T10:29:04;81.90;;;45.20;;
14599;SDS011;7386;45.586;12.854;2024-02-15T10:31:36;85.57;;;44.50;;
14599;SDS011;7386;45.586;12.854;2024-02-15T10:34:06;53.90;;;30.13;;
14599;SDS011;7386;45.586;12.854;2024-02-15T10:36:35;61.33;;;34.30;;
14599;SDS011;7386;45.586;12.854;2024-02-15T10:39:10;75.97;;;41.93;;
14599;SDS011;7386;45.586;12.854;2024-02-15T10:41:44;82.60;;;44.80;;
14599;SDS011;7386;45.586;12.854;2024-02-15T10:44:17;87.57;;;46.87;;
14599;SDS011;7386;45.586;12.854;2024-02-15T10:46:46;63.03;;;34.00;;
14599;SDS011;7386;45.586;12.854;2024-02-15T10:49:19;60.60;;;33.97;;
14599;SDS011;7386;45.586;12.854;2024-02-15T10:51:50;74.10;;;41.40;;
14599;SDS011;7386;45.586;12.854;2024-02-15T10:54:23;88.97;;;48.63;;
14599;SDS011;7386;45.586;12.854;2024-02-15T10:56:58;92.17;;;49.23;;
14599;SDS011;7386;45.586;12.854;2024-02-15T10:59:31;100.63;;;50.70;;
14599;SDS011;7386;45.586;12.854;2024-02-15T11:02:01;71.40;;;36.67;;
14599;SDS011;7386;45.586;12.854;2024-02-15T11:04:32;60.17;;;36.07;;
14599;SDS011;7386;45.586;12.854;2024-02-15T11:07:03;81.93;;;45.53;;
14599;SDS011;7386;45.586;12.854;2024-02-15T11:09:34;95.40;;;50.87;;
14599;SDS011;7386;45.586;12.854;2024-02-15T11:12:02;74.50;;;40.67;;
14599;SDS011;7386;45.586;12.854;2024-02-15T11:14:31;47.23;;;29.03;;
14599;SDS011;7386;45.586;12.854;2024-02-15T11:17:01;73.30;;;41.63;;
14599;SDS011;7386;45.586;12.854;2024-02-15T11:19:43;88.90;;;48.30;;
14599;SDS011;7386;45.586;12.854;2024-02-15T11:22:13;91.97;;;49.27;;
14599;SDS011;7386;45.586;12.854;2024-02-15T11:24:46;52.83;;;29.50;;
14599;SDS011;7386;45.586;12.854;2024-02-15T11:27:23;78.90;;;40.27;;
14599;SDS011;7386;45.586;12.854;2024-02-15T11:29:53;89.27;;;48.00;;
14599;SDS011;7386;45.586;12.854;2024-02-15T11:32:33;101.10;;;52.77;;
14599;SDS011;7386;45.586;12.854;2024-02-15T11:35:04;50.23;;;30.70;;
14599;SDS011;7386;45.586;12.854;2024-02-15T11:37:50;69.93;;;39.67;;
14599;SDS011;7386;45.586;12.854;2024-02-15T11:40:20;87.73;;;47.00;;
14599;SDS011;7386;45.586;12.854;2024-02-15T11:42:53;78.90;;;40.63;;
14599;SDS011;7386;45.586;12.854;2024-02-15T11:45:23;41.60;;;26.13;;
14599;SDS011;7386;45.586;12.854;2024-02-15T11:47:53;78.53;;;41.40;;
14599;SDS011;7386;45.586;12.854;2024-02-15T11:50:23;88.80;;;45.97;;
14599;SDS011;7386;45.586;12.854;2024-02-15T11:52:52;72.40;;;41.37;;
14599;SDS011;7386;45.586;12.854;2024-02-15T11:55:36;43.00;;;26.10;;
14599;SDS011;7386;45.586;12.854;2024-02-15T11:58:04;67.53;;;38.90;;
14599;SDS011;7386;45.586;12.854;2024-02-15T12:00:43;84.73;;;44.87;;
14599;SDS011;7386;45.586;12.854;2024-02-15T12:03:29;57.17;;;31.87;;
14599;SDS011;7386;45.586;12.854;2024-02-15T12:06:31;68.23;;;37.53;;
14599;SDS011;7386;45.586;12.854;2024-02-15T12:09:17;80.17;;;44.00;;
14599;SDS011;7386;45.586;12.854;2024-02-15T12:12:05;83.27;;;46.63;;
14599;SDS011;7386;45.586;12.854;2024-02-15T12:14:57;49.03;;;29.20;;
14599;SDS011;7386;45.586;12.854;2024-02-15T12:17:44;69.37;;;39.30;;
14599;SDS011;7386;45.586;12.854;2024-02-15T12:20:30;87.70;;;48.27;;
14599;SDS011;7386;45.586;12.854;2024-02-15T12:23:00;67.50;;;38.60;;
14599;SDS011;7386;45.586;12.854;2024-02-15T12:25:28;38.47;;;24.27;;
14599;SDS011;7386;45.586;12.854;2024-02-15T12:28:00;64.57;;;38.70;;
14599;SDS011;7386;45.586;12.854;2024-02-15T12:30:32;83.90;;;47.97;;
14599;SDS011;7386;45.586;12.854;2024-02-15T12:33:10;58.90;;;34.17;;
14599;SDS011;7386;45.586;12.854;2024-02-15T12:35:40;44.20;;;27.23;;
14599;SDS011;7386;45.586;12.854;2024-02-15T12:38:11;65.07;;;40.23;;
14599;SDS011;7386;45.586;12.854;2024-02-15T12:40:43;77.70;;;46.03;;
14599;SDS011;7386;45.586;12.854;2024-02-15T12:43:13;49.57;;;32.27;;
14599;SDS011;7386;45.586;12.854;2024-02-15T12:45:42;51.23;;;31.37;;
14599;SDS011;7386;45.586;12.854;2024-02-15T12:48:11;67.13;;;41.43;;
14599;SDS011;7386;45.586;12.854;2024-02-15T12:50:42;80.80;;;47.43;;
14599;SDS011;7386;45.586;12.854;2024-02-15T12:53:12;55.20;;;33.43;;
14599;SDS011;7386;45.586;12.854;2024-02-15T12:55:41;45.13;;;29.43;;
14599;SDS011;7386;45.586;12.854;2024-02-15T12:58:12;63.73;;;38.33;;
14599;SDS011;7386;45.586;12.854;2024-02-15T13:00:42;74.33;;;42.60;;
14599;SDS011;7386;45.586;12.854;2024-02-15T13:03:11;53.40;;;30.40;;
14599;SDS011;7386;45.586;12.854;2024-02-15T13:05:42;49.53;;;31.00;;
14599;SDS011;7386;45.586;12.854;2024-02-15T13:08:12;62.43;;;37.37;;
14599;SDS011;7386;45.586;12.854;2024-02-15T13:10:41;76.33;;;42.27;;
14599;SDS011;7386;45.586;12.854;2024-02-15T13:13:10;53.97;;;29.60;;
14599;SDS011;7386;45.586;12.854;2024-02-15T13:15:40;53.83;;;31.90;;
14599;SDS011;7386;45.586;12.854;2024-02-15T13:18:10;65.77;;;37.83;;
14599;SDS011;7386;45.586;12.854;2024-02-15T13:20:41;69.40;;;39.37;;
14599;SDS011;7386;45.586;12.854;2024-02-15T13:23:10;46.47;;;27.03;;
14599;SDS011;7386;45.586;12.854;2024-02-15T13:25:48;55.80;;;32.17;;
14599;SDS011;7386;45.586;12.854;2024-02-15T13:28:16;61.27;;;36.00;;
14599;SDS011;7386;45.586;12.854;2024-02-15T13:30:45;67.80;;;39.93;;
14599;SDS011;7386;45.586;12.854;2024-02-15T13:33:16;43.93;;;25.93;;
14599;SDS011;7386;45.586;12.854;2024-02-15T13:35:44;53.93;;;31.90;;
14599;SDS011;7386;45.586;12.854;2024-02-15T13:38:14;69.10;;;38.07;;
14599;SDS011;7386;45.586;12.854;2024-02-15T13:40:51;62.47;;;36.23;;
14599;SDS011;7386;45.586;12.854;2024-02-15T13:43:22;38.97;;;24.90;;
14599;SDS011;7386;45.586;12.854;2024-02-15T13:45:51;48.90;;;30.70;;
14599;SDS011;7386;45.586;12.854;2024-02-15T13:48:20;55.73;;;33.63;;
14599;SDS011;7386;45.586;12.854;2024-02-15T13:50:51;46.27;;;28.13;;
14599;SDS011;7386;45.586;12.854;2024-02-15T13:53:20;41.43;;;25.20;;
14599;SDS011;7386;45.586;12.854;2024-02-15T13:55:53;49.67;;;30.00;;
14599;SDS011;7386;45.586;12.854;2024-02-15T13:58:21;53.30;;;32.40;;
14599;SDS011;7386;45.586;12.854;2024-02-15T14:00:50;42.20;;;23.43;;
14599;SDS011;7386;45.586;12.854;2024-02-15T14:03:19;42.53;;;24.93;;
14599;SDS011;7386;45.586;12.854;2024-02-15T14:05:49;46.10;;;28.40;;
14599;SDS011;7386;45.586;12.854;2024-02-15T14:08:17;52.50;;;30.93;;
14599;SDS011;7386;45.586;12.854;2024-02-15T14:10:47;40.03;;;23.30;;
14599;SDS011;7386;45.586;12.854;2024-02-15T14:13:17;41.10;;;24.77;;
14599;SDS011;7386;45.586;12.854;2024-02-15T14:15:48;47.17;;;27.57;;
14599;SDS011;7386;45.586;12.854;2024-02-15T14:18:18;54.57;;;30.63;;
14599;SDS011;7386;45.586;12.854;2024-02-15T14:20:47;43.87;;;24.27;;
14599;SDS011;7386;45.586;12.854;2024-02-15T14:23:17;41.80;;;24.27;;
14599;SDS011;7386;45.586;12.854;2024-02-15T14:25:46;52.87;;;28.37;;
14599;SDS011;7386;45.586;12.854;2024-02-15T14:28:17;55.40;;;30.63;;
14599;SDS011;7386;45.586;12.854;2024-02-15T14:30:46;39.73;;;22.50;;
14599;SDS011;7386;45.586;12.854;2024-02-15T14:33:32;47.40;;;26.83;;
14599;SDS011;7386;45.586;12.854;2024-02-15T14:36:01;49.47;;;27.07;;
14599;SDS011;7386;45.586;12.854;2024-02-15T14:38:31;52.40;;;28.77;;
14599;SDS011;7386;45.586;12.854;2024-02-15T14:41:01;38.67;;;20.70;;
14599;SDS011;7386;45.586;12.854;2024-02-15T14:43:35;40.30;;;23.40;;